Terminal Aerodrome Forecast
Issued by NWS Billings, MT

Home | Current Version | Previous Version | Graphics & Text | Print | Product List | Glossary On
Versions: 1 2 3 4 5 6 7 8 9 10 11 12 13 14 15
000
FTUS45 KBYZ 150525
TAFMLS
TAF
KMLS 150525Z 1506/1606 16007KT P6SM FEW110 SCT250
     FM151700 27017G26KT P6SM FEW110 BKN250
     FM160100 33017G27KT P6SM VCSH BKN060 OVC250=

USA.gov is the U.S. government's official web portal to all federal, state and local government web resources and services.